Time;durP1;ratioP1;P1;durP2;ratioP2;P2;SDS_P1;SDS_P2;PMS_P1;PMS_P2;Temp;Humidity;BMP_temperature;BMP_pressure;BME280_temperature;BME280_humidity;BME280_pressure;Samples;Min_cycle;Max_cycle;Signal;HPM_P1;HPM_P2
2023/06/28 00:01:23;;;;;;;4.00;1.50;;;;;;;15.92;100.00;99337.78;5112489;28;20626;-76
2023/06/28 00:03:50;;;;;;;2.77;1.50;;;;;;;15.89;100.00;99330.22;5112151;28;20235;-76
2023/06/28 00:06:19;;;;;;;3.43;1.53;;;;;;;15.87;100.00;99329.66;5111979;28;20634;-76
2023/06/28 00:08:47;;;;;;;1.80;1.70;;;;;;;15.88;100.00;99328.56;5112156;28;20275;-76
2023/06/28 00:11:13;;;;;;;2.13;1.47;;;;;;;15.86;100.00;99323.44;5094462;28;20257;-76
2023/06/28 00:13:40;;;;;;;2.67;1.87;;;;;;;15.82;100.00;99322.31;5105769;28;20189;-76
2023/06/28 00:16:07;;;;;;;1.47;1.37;;;;;;;15.81;100.00;99323.41;5111729;28;20213;-76
2023/06/28 00:18:34;;;;;;;3.27;1.77;;;;;;;15.77;100.00;99314.19;5102147;28;20252;-76
2023/06/28 00:21:02;;;;;;;1.53;1.40;;;;;;;15.76;100.00;99318.00;5110117;28;20211;-76
2023/06/28 00:23:30;;;;;;;1.87;1.50;;;;;;;15.73;100.00;99315.78;5112129;28;20191;-77
2023/06/28 00:25:57;;;;;;;2.63;1.80;;;;;;;15.72;100.00;99314.16;5099077;28;20195;-76
2023/06/28 00:28:24;;;;;;;1.80;1.40;;;;;;;15.73;100.00;99314.97;5103808;28;20204;-75
2023/06/28 00:30:50;;;;;;;1.80;1.50;;;;;;;15.72;100.00;99316.06;5103255;28;20200;-76
2023/06/28 00:33:19;;;;;;;2.97;1.77;;;;;;;15.68;100.00;99317.63;5080717;28;20636;-77
2023/06/28 00:35:48;;;;;;;2.80;1.60;;;;;;;15.67;100.00;99321.44;5107391;28;20214;-77
2023/06/28 00:38:15;;;;;;;2.43;1.60;;;;;;;15.64;100.00;99319.22;5112021;28;20253;-75
2023/06/28 00:40:42;;;;;;;2.10;1.47;;;;;;;15.63;100.00;99315.72;5111983;28;20183;-76
2023/06/28 00:43:09;;;;;;;3.27;1.60;;;;;;;15.62;100.00;99316.00;5077161;28;20223;-76
2023/06/28 00:45:36;;;;;;;1.97;1.60;;;;;;;15.59;100.00;99325.41;5087882;28;20209;-76
2023/06/28 00:48:03;;;;;;;1.50;1.40;;;;;;;15.58;100.00;99309.50;5093698;28;20203;-76
2023/06/28 00:50:30;;;;;;;2.20;1.57;;;;;;;15.55;100.00;99318.09;5111721;28;20275;-77
2023/06/28 00:52:57;;;;;;;2.90;1.40;;;;;;;15.52;100.00;99316.75;5086388;28;20234;-76
2023/06/28 00:55:23;;;;;;;2.70;1.63;;;;;;;15.47;100.00;99330.16;5089514;28;20715;-76
2023/06/28 00:57:52;;;;;;;2.10;1.57;;;;;;;15.41;100.00;99323.91;5112217;28;20215;-77
2023/06/28 01:00:19;;;;;;;2.90;1.77;;;;;;;15.36;100.00;99323.88;5112318;28;20719;-76
2023/06/28 01:02:48;;;;;;;3.97;1.60;;;;;;;15.33;100.00;99331.66;5104342;28;20273;-77
2023/06/28 01:05:15;;;;;;;2.93;1.60;;;;;;;15.30;100.00;99334.91;5093456;28;20219;-77
2023/06/28 01:07:43;;;;;;;3.37;1.70;;;;;;;15.32;100.00;99330.84;5111828;28;20195;-76
2023/06/28 01:10:10;;;;;;;2.07;1.40;;;;;;;15.31;100.00;99334.63;5094820;28;20200;-77
2023/06/28 01:12:39;;;;;;;1.80;1.63;;;;;;;15.32;100.00;99332.72;5113057;28;20196;-76
2023/06/28 01:15:07;;;;;;;3.07;1.53;;;;;;;15.29;100.00;99347.56;5105641;28;20226;-77
2023/06/28 01:17:34;;;;;;;2.30;1.50;;;;;;;15.28;100.00;99356.72;5108231;28;20678;-77
2023/06/28 01:20:03;;;;;;;2.03;1.70;;;;;;;15.26;100.00;99363.44;5105322;28;20257;-76
2023/06/28 01:22:32;;;;;;;3.33;1.80;;;;;;;15.24;100.00;99371.00;5078205;28;20299;-75
2023/06/28 01:24:58;;;;;;;2.03;1.60;;;;;;;15.22;100.00;99378.53;5091679;28;20187;-77
2023/06/28 01:27:27;;;;;;;3.17;1.50;;;;;;;15.22;100.00;99381.22;5082195;28;20707;-76
2023/06/28 01:29:56;;;;;;;1.67;1.50;;;;;;;15.22;100.00;99383.91;5105017;28;20694;-77
2023/06/28 01:32:24;;;;;;;2.27;1.37;;;;;;;15.22;100.00;99392.84;5102546;28;20558;-77
2023/06/28 01:34:50;;;;;;;2.40;1.20;;;;;;;15.24;100.00;99393.41;5100989;28;20192;-75
2023/06/28 01:37:17;;;;;;;3.03;1.50;;;;;;;15.26;100.00;99396.66;5088814;28;20546;-77
2023/06/28 01:39:45;;;;;;;1.53;1.40;;;;;;;15.34;100.00;99396.19;5085266;28;20184;-77
2023/06/28 01:42:12;;;;;;;2.07;1.30;;;;;;;15.34;100.00;99376.50;5087773;28;20767;-78
2023/06/28 01:44:39;;;;;;;2.10;1.10;;;;;;;15.36;100.00;99391.34;5073431;28;20655;-76
2023/06/28 01:47:05;;;;;;;2.53;1.20;;;;;;;15.52;100.00;99386.94;5082937;28;20230;-76
2023/06/28 01:49:33;;;;;;;1.40;1.20;;;;;;;15.50;100.00;99380.13;5094829;28;20193;-77
2023/06/28 01:52:00;;;;;;;1.77;1.20;;;;;;;15.54;100.00;99387.47;5102464;28;20189;-77
2023/06/28 01:54:28;;;;;;;2.00;1.10;;;;;;;15.65;100.00;99386.50;5101047;28;20187;-78
2023/06/28 01:56:55;;;;;;;2.00;1.20;;;;;;;15.69;100.00;99379.50;5100429;28;20196;-77
2023/06/28 01:59:22;;;;;;;1.80;1.10;;;;;;;15.71;100.00;99390.88;5076614;28;20203;-77
2023/06/28 02:01:48;;;;;;;1.10;1.00;;;;;;;15.68;100.00;99394.06;5105545;28;20215;-77
2023/06/28 02:04:15;;;;;;;1.37;1.10;;;;;;;15.68;100.00;99394.06;5111642;28;20309;-77
2023/06/28 02:06:42;;;;;;;1.97;1.10;;;;;;;15.64;100.00;99395.66;5105693;28;20191;-77
2023/06/28 02:09:08;;;;;;;2.47;1.20;;;;;;;15.65;100.00;99388.38;5114255;28;20188;-76
2023/06/28 02:11:35;;;;;;;1.50;1.10;;;;;;;15.64;100.00;99392.16;5082430;28;20204;-77
2023/06/28 02:14:02;;;;;;;2.20;0.90;;;;;;;15.61;100.00;99385.38;5104511;28;20202;-77
2023/06/28 02:16:31;;;;;;;1.57;1.00;;;;;;;15.71;100.00;99382.78;5105851;28;20647;-77
2023/06/28 02:19:00;;;;;;;1.70;1.10;;;;;;;15.71;100.00;99380.06;5101115;28;20201;-77
2023/06/28 02:21:27;;;;;;;4.50;1.30;;;;;;;15.66;100.00;99382.72;5107342;28;20238;-77
2023/06/28 02:23:54;;;;;;;2.40;0.93;;;;;;;15.71;100.00;99390.06;5103757;28;20625;-77
2023/06/28 02:26:21;;;;;;;1.47;0.90;;;;;;;15.64;100.00;99384.84;5108303;28;20199;-77
2023/06/28 02:28:48;;;;;;;1.20;1.10;;;;;;;15.68;100.00;99391.38;5081385;28;20281;-76
2023/06/28 02:31:16;;;;;;;2.77;1.17;;;;;;;15.56;100.00;99389.94;5105001;28;20291;-76
2023/06/28 02:33:45;;;;;;;1.33;1.10;;;;;;;15.51;100.00;99398.81;5101904;28;20815;-78
2023/06/28 02:36:12;;;;;;;1.90;1.30;;;;;;;15.44;100.00;99406.28;5104027;28;20274;-76
2023/06/28 02:38:41;;;;;;;1.53;1.20;;;;;;;15.42;100.00;99405.72;5080048;28;20203;-76
2023/06/28 02:41:08;;;;;;;2.10;1.43;;;;;;;15.38;100.00;99405.41;5099495;28;20539;-77
2023/06/28 02:43:36;;;;;;;1.43;1.20;;;;;;;15.37;100.00;99402.97;5091069;28;20208;-77
2023/06/28 02:46:03;;;;;;;1.30;1.17;;;;;;;15.30;100.00;99410.47;5095350;28;20202;-77
2023/06/28 02:48:30;;;;;;;1.47;1.37;;;;;;;15.43;100.00;99404.66;5105029;28;20191;-77
2023/06/28 02:50:57;;;;;;;2.27;1.30;;;;;;;15.37;100.00;99413.75;5095015;28;20223;-76
2023/06/28 02:53:24;;;;;;;3.13;1.50;;;;;;;15.38;100.00;99410.00;5095172;28;20670;-75
2023/06/28 02:55:50;;;;;;;1.40;1.27;;;;;;;15.24;100.00;99419.56;5095422;28;20199;-77
2023/06/28 02:58:23;;;;;;;2.43;1.40;;;;;;;15.19;100.00;99416.81;5095138;28;20207;-77
2023/06/28 03:00:50;;;;;;;2.90;1.47;;;;;;;15.09;100.00;99422.09;5095123;28;20199;-77
2023/06/28 03:03:18;;;;;;;2.53;1.37;;;;;;;15.07;100.00;99411.56;5094366;28;20657;-77
2023/06/28 03:05:46;;;;;;;2.13;1.57;;;;;;;14.99;100.00;99410.13;5069974;28;20598;-76
2023/06/28 03:08:13;;;;;;;1.80;1.40;;;;;;;15.02;100.00;99424.19;5093549;28;20202;-76
2023/06/28 03:10:40;;;;;;;3.00;1.30;;;;;;;14.99;100.00;99428.22;5094918;28;20192;-77
2023/06/28 03:13:07;;;;;;;1.90;1.20;;;;;;;14.98;100.00;99424.69;5109493;28;20546;-77
2023/06/28 03:15:34;;;;;;;2.00;1.30;;;;;;;14.91;100.00;99429.47;5084468;28;20196;-77
2023/06/28 03:18:00;;;;;;;1.60;1.30;;;;;;;14.89;100.00;99425.38;5094482;28;20188;-77
2023/06/28 03:20:27;;;;;;;3.17;1.30;;;;;;;14.88;100.00;99427.28;5108946;28;20200;-76
2023/06/28 03:22:55;;;;;;;1.90;1.27;;;;;;;14.91;100.00;99421.38;5094603;28;20211;-77
2023/06/28 03:25:22;;;;;;;1.90;1.40;;;;;;;14.98;100.00;99419.28;5110712;28;20251;-77
2023/06/28 03:27:49;;;;;;;2.63;1.20;;;;;;;14.92;100.00;99411.41;5093404;28;20196;-77
2023/06/28 03:30:16;;;;;;;1.63;1.20;;;;;;;14.90;100.00;99418.94;5094885;28;20208;-76
2023/06/28 03:32:43;;;;;;;1.90;1.40;;;;;;;14.92;100.00;99419.50;5112492;28;20250;-77
2023/06/28 03:35:10;;;;;;;1.40;1.27;;;;;;;14.91;100.00;99429.47;5093245;28;20200;-77
2023/06/28 03:37:36;;;;;;;1.90;1.50;;;;;;;14.97;100.00;99431.19;5100351;28;20755;-77
2023/06/28 03:40:04;;;;;;;2.97;1.63;;;;;;;15.02;100.00;99430.41;5092193;28;20195;-76
2023/06/28 03:42:31;;;;;;;1.23;1.13;;;;;;;15.13;100.00;99431.31;5113259;28;20208;-77
2023/06/28 03:44:58;;;;;;;1.93;1.30;;;;;;;14.99;100.00;99437.13;5088893;28;20719;-76
2023/06/28 03:47:24;;;;;;;1.40;1.30;;;;;;;14.92;100.00;99447.31;5086621;28;20188;-76
2023/06/28 03:49:53;;;;;;;1.60;1.20;;;;;;;14.94;100.00;99447.84;5094878;28;20252;-77
2023/06/28 03:52:19;;;;;;;2.33;1.17;;;;;;;15.15;100.00;99450.78;5112682;28;20210;-77
2023/06/28 03:54:46;;;;;;;1.23;1.10;;;;;;;15.04;100.00;99457.13;5094655;28;20669;-75
2023/06/28 03:57:13;;;;;;;1.60;1.50;;;;;;;15.05;100.00;99453.38;5086137;28;20253;-77
2023/06/28 03:59:39;;;;;;;3.20;1.30;;;;;;;14.91;100.00;99452.94;5086061;28;20244;-77
2023/06/28 04:02:06;;;;;;;2.07;1.40;;;;;;;14.92;100.00;99455.41;5109551;28;20221;-76
2023/06/28 04:04:33;;;;;;;1.73;1.50;;;;;;;14.89;100.00;99452.38;5111895;28;20223;-76
2023/06/28 04:07:02;;;;;;;1.90;1.40;;;;;;;14.82;100.00;99452.56;5112195;28;20565;-77
2023/06/28 04:09:29;;;;;;;1.83;1.40;;;;;;;14.82;100.00;99468.75;5107147;28;20188;-76
2023/06/28 04:11:56;;;;;;;2.30;1.40;;;;;;;14.75;100.00;99462.72;5104723;28;20609;-78
2023/06/28 04:14:23;;;;;;;2.17;1.40;;;;;;;14.73;100.00;99466.75;5108503;28;20219;-77
2023/06/28 04:16:51;;;;;;;2.03;1.57;;;;;;;14.78;100.00;99467.63;5112375;28;20274;-77
2023/06/28 04:19:18;;;;;;;2.83;1.50;;;;;;;14.77;100.00;99462.47;5109585;28;20223;-77
2023/06/28 04:21:46;;;;;;;1.77;1.50;;;;;;;14.75;100.00;99472.69;5094155;28;20223;-76
2023/06/28 04:24:12;;;;;;;2.03;1.50;;;;;;;14.71;100.00;99466.16;5112050;28;20729;-77
2023/06/28 04:26:39;;;;;;;1.40;1.30;;;;;;;14.68;100.00;99466.69;5112500;28;20216;-76
2023/06/28 04:29:06;;;;;;;1.53;1.40;;;;;;;14.72;100.00;99467.81;5111823;28;20196;-76
2023/06/28 04:31:33;;;;;;;2.40;1.47;;;;;;;14.69;100.00;99465.63;5108093;28;20679;-77
2023/06/28 04:34:01;;;;;;;1.67;1.57;;;;;;;14.74;100.00;99469.19;5106074;28;20191;-76
2023/06/28 04:36:27;;;;;;;2.37;1.80;;;;;;;14.70;100.00;99469.91;5103590;28;20192;-76
2023/06/28 04:38:54;;;;;;;2.90;1.80;;;;;;;14.63;100.00;99464.72;5112219;28;20215;-76
2023/06/28 04:41:23;;;;;;;3.13;1.80;;;;;;;14.65;100.00;99467.19;5095214;28;20743;-76
2023/06/28 04:43:54;;;;;;;2.37;1.83;;;;;;;14.53;100.00;99469.97;5112640;28;20208;-77
2023/06/28 04:46:22;;;;;;;2.07;1.70;;;;;;;14.43;100.00;99465.25;5115835;28;20191;-76
2023/06/28 04:48:52;;;;;;;2.83;1.80;;;;;;;14.46;100.00;99463.97;5115767;28;20192;-76
2023/06/28 04:51:20;;;;;;;3.17;1.80;;;;;;;14.45;100.00;99470.41;5113186;28;20663;-77
2023/06/28 04:53:47;;;;;;;1.73;1.63;;;;;;;14.39;100.00;99464.13;5116147;28;20730;-77
2023/06/28 04:56:14;;;;;;;2.40;1.90;;;;;;;14.37;100.00;99463.53;5116039;28;20626;-77
2023/06/28 04:58:42;;;;;;;2.93;1.90;;;;;;;14.46;100.00;99464.75;5109107;28;20555;-76
2023/06/28 05:01:09;;;;;;;3.23;1.80;;;;;;;14.47;100.00;99466.38;5113163;28;20215;-77
2023/06/28 05:03:38;;;;;;;1.87;1.67;;;;;;;14.51;100.00;99472.91;5115443;28;20626;-76
2023/06/28 05:06:08;;;;;;;2.03;1.87;;;;;;;14.50;100.00;99468.63;5101068;28;20691;-77
2023/06/28 05:08:35;;;;;;;2.30;1.80;;;;;;;14.51;100.00;99478.31;5106596;28;20195;-76
2023/06/28 05:11:02;;;;;;;2.17;1.90;;;;;;;14.52;100.00;99474.56;5113104;28;20536;-76
2023/06/28 05:13:28;;;;;;;2.53;2.10;;;;;;;14.60;100.00;99467.94;5106218;28;20238;-77
2023/06/28 05:15:55;;;;;;;1.93;1.50;;;;;;;14.70;100.00;99472.63;5116046;28;20564;-77
2023/06/28 05:18:22;;;;;;;1.80;1.70;;;;;;;14.79;100.00;99466.53;5115500;28;20249;-77
2023/06/28 05:20:49;;;;;;;2.27;1.80;;;;;;;14.88;100.00;99464.25;5096392;28;20565;-76
2023/06/28 05:23:17;;;;;;;3.20;1.80;;;;;;;15.05;100.00;99453.38;5110068;28;20620;-77
2023/06/28 05:25:45;;;;;;;1.73;1.63;;;;;;;15.20;100.00;99445.44;5094774;28;20271;-77
2023/06/28 05:28:13;;;;;;;2.73;1.70;;;;;;;15.32;100.00;99446.09;5115320;28;20646;-76
2023/06/28 05:30:41;;;;;;;2.10;1.70;;;;;;;15.41;100.00;99448.09;5115756;28;20211;-76
2023/06/28 05:33:08;;;;;;;2.80;2.20;;;;;;;15.52;100.00;99438.25;5109533;28;20677;-77
2023/06/28 05:35:36;;;;;;;1.80;1.70;;;;;;;15.65;100.00;99448.59;5110588;28;20241;-75
2023/06/28 05:38:04;;;;;;;3.30;2.10;;;;;;;15.65;100.00;99445.91;5114368;28;20219;-76
2023/06/28 05:40:31;;;;;;;3.37;2.13;;;;;;;15.60;100.00;99442.34;5115177;28;20694;-76
2023/06/28 05:42:58;;;;;;;2.87;2.20;;;;;;;15.58;100.00;99442.63;5114883;28;20310;-77
2023/06/28 05:45:26;;;;;;;2.17;1.97;;;;;;;15.65;100.00;99442.38;5109649;28;20723;-77
2023/06/28 05:47:53;;;;;;;2.63;2.00;;;;;;;15.68;100.00;99448.09;5097164;28;20203;-76
2023/06/28 05:50:21;;;;;;;3.00;2.27;;;;;;;15.85;100.00;99458.78;5114089;28;20660;-77
2023/06/28 05:52:49;;;;;;;2.10;1.90;;;;;;;16.09;100.00;99470.84;5114652;28;20192;-77
2023/06/28 05:55:16;;;;;;;3.40;2.00;;;;;;;16.01;100.00;99476.72;5105462;28;20282;-77
2023/06/28 05:57:44;;;;;;;2.70;1.80;;;;;;;15.93;100.00;99477.22;5108438;28;20241;-76
2023/06/28 06:00:12;;;;;;;1.60;1.50;;;;;;;16.01;100.00;99465.09;5111459;28;20245;-77
2023/06/28 06:02:39;;;;;;;1.53;1.43;;;;;;;16.33;100.00;99465.06;5101146;28;20272;-77
2023/06/28 06:05:07;;;;;;;2.07;1.47;;;;;;;16.61;100.00;99464.72;5107551;28;20240;-76
2023/06/28 06:07:39;;;;;;;1.97;1.50;;;;;;;16.77;100.00;99458.28;5103273;28;20587;-77
2023/06/28 06:10:07;;;;;;;2.00;1.40;;;;;;;16.83;100.00;99464.56;5109796;28;20204;-76
2023/06/28 06:12:33;;;;;;;1.67;1.30;;;;;;;16.86;100.00;99475.66;5103055;28;20218;-76
2023/06/28 06:15:01;;;;;;;1.83;1.40;;;;;;;16.87;100.00;99469.16;5096518;28;20626;-76
2023/06/28 06:17:27;;;;;;;2.57;1.40;;;;;;;16.97;100.00;99485.47;5097391;28;20196;-78
2023/06/28 06:19:54;;;;;;;1.10;1.00;;;;;;;17.13;100.00;99497.94;5088675;28;20611;-76
2023/06/28 06:22:21;;;;;;;1.50;1.20;;;;;;;17.23;100.00;99489.06;5076194;28;20288;-76
2023/06/28 06:24:47;;;;;;;1.30;1.20;;;;;;;17.34;100.00;99488.00;5088923;28;20208;-77
2023/06/28 06:27:14;;;;;;;1.00;1.00;;;;;;;17.54;100.00;99492.66;5100207;28;20615;-76
2023/06/28 06:29:40;;;;;;;1.63;0.90;;;;;;;17.62;100.00;99494.06;5108016;28;20216;-76
2023/06/28 06:32:07;;;;;;;0.93;0.93;;;;;;;17.77;100.00;99488.66;5112151;28;20192;-77
2023/06/28 06:34:34;;;;;;;2.30;1.00;;;;;;;17.84;100.00;99490.00;5110509;28;20219;-77
2023/06/28 06:37:01;;;;;;;0.80;0.80;;;;;;;17.82;100.00;99499.50;5108044;28;20196;-76
2023/06/28 06:39:27;;;;;;;1.37;1.00;;;;;;;18.13;100.00;99492.19;5114003;28;20234;-82
2023/06/28 06:41:54;;;;;;;1.80;1.27;;;;;;;18.26;100.00;99497.88;5114075;28;20230;-77
2023/06/28 06:44:23;;;;;;;1.23;0.80;;;;;;;18.52;100.00;99497.84;5086455;28;20253;-77
2023/06/28 06:46:49;;;;;;;1.43;1.00;;;;;;;18.74;100.00;99485.59;5102164;28;20235;-76
2023/06/28 06:49:18;;;;;;;0.80;0.80;;;;;;;19.18;100.00;99485.66;5111393;28;20281;-76
2023/06/28 06:51:45;;;;;;;1.17;0.80;;;;;;;19.23;100.00;99477.50;5105872;28;20207;-77
2023/06/28 06:54:12;;;;;;;0.90;0.80;;;;;;;19.48;100.00;99478.47;5108415;28;20278;-77
2023/06/28 06:56:39;;;;;;;0.93;0.83;;;;;;;19.56;100.00;99481.41;5108726;28;20273;-81
2023/06/28 06:59:05;;;;;;;0.73;0.73;;;;;;;19.47;100.00;99469.53;5103870;28;20272;-75
2023/06/28 07:01:34;;;;;;;0.80;0.80;;;;;;;19.59;100.00;99474.63;5105957;28;20243;-76
2023/06/28 07:04:01;;;;;;;0.90;0.70;;;;;;;19.82;100.00;99473.09;5098033;28;20238;-76
2023/06/28 07:06:27;;;;;;;1.07;0.90;;;;;;;19.73;100.00;99462.03;5098358;28;20222;-77
2023/06/28 07:08:54;;;;;;;0.60;0.60;;;;;;;19.88;100.00;99458.34;5101378;28;20185;-77
2023/06/28 07:11:21;;;;;;;0.70;0.70;;;;;;;19.94;100.00;99462.66;5102512;28;20705;-77
2023/06/28 07:13:47;;;;;;;1.03;0.70;;;;;;;20.13;100.00;99460.84;5102172;28;20229;-77
2023/06/28 07:16:14;;;;;;;0.80;0.70;;;;;;;20.23;100.00;99460.75;5113081;28;20271;-77
2023/06/28 07:18:40;;;;;;;1.10;0.63;;;;;;;20.33;100.00;99449.00;5110805;28;20685;-77
2023/06/28 07:21:07;;;;;;;0.67;0.67;;;;;;;20.42;100.00;99445.38;5106337;28;20689;-76
2023/06/28 07:23:34;;;;;;;1.30;0.60;;;;;;;20.45;100.00;99452.94;5112500;28;20222;-77
2023/06/28 07:26:01;;;;;;;0.67;0.67;;;;;;;20.28;100.00;99446.31;5110163;28;20657;-76
2023/06/28 07:28:27;;;;;;;0.80;0.80;;;;;;;20.33;100.00;99444.38;5110484;28;20227;-77
2023/06/28 07:30:56;;;;;;;0.67;0.60;;;;;;;20.53;100.00;99446.09;5112989;28;20308;-76
2023/06/28 07:33:23;;;;;;;0.50;0.50;;;;;;;20.65;100.00;99441.03;5094884;28;20617;-77
2023/06/28 07:35:50;;;;;;;0.60;0.60;;;;;;;20.65;100.00;99441.84;5110617;28;20182;-77
2023/06/28 07:38:18;;;;;;;0.80;0.70;;;;;;;20.48;100.00;99449.63;5112605;28;20636;-76
2023/06/28 07:40:46;;;;;;;0.80;0.60;;;;;;;20.42;100.00;99439.13;5106964;28;20637;-77
2023/06/28 07:43:13;;;;;;;0.70;0.70;;;;;;;20.50;100.00;99446.63;5112312;28;20658;-77
2023/06/28 07:45:40;;;;;;;1.47;0.80;;;;;;;20.43;100.00;99444.28;5112428;28;20187;-77
2023/06/28 07:48:08;;;;;;;0.77;0.60;;;;;;;20.48;100.00;99455.09;5106830;28;20272;-77
2023/06/28 07:50:35;;;;;;;0.60;0.60;;;;;;;20.66;100.00;99450.81;5109553;28;20207;-78
2023/06/28 07:53:02;;;;;;;0.87;0.80;;;;;;;20.85;100.00;99451.69;5099275;28;20311;-78
2023/06/28 07:55:29;;;;;;;0.73;0.67;;;;;;;20.75;100.00;99446.34;5109811;28;20187;-79
2023/06/28 07:57:56;;;;;;;0.90;0.70;;;;;;;20.65;100.00;99447.28;5107982;28;20186;-78
2023/06/28 08:00:24;;;;;;;0.80;0.80;;;;;;;20.79;100.00;99443.88;5111668;28;20659;-78
2023/06/28 08:02:50;;;;;;;1.43;0.90;;;;;;;20.79;100.00;99444.69;5112179;28;20214;-78
2023/06/28 08:05:17;;;;;;;0.80;0.80;;;;;;;20.72;100.00;99433.31;5112012;28;20215;-78
2023/06/28 08:07:44;;;;;;;1.23;0.80;;;;;;;20.70;100.00;99440.16;5112464;28;20200;-78
2023/06/28 08:10:10;;;;;;;1.37;0.70;;;;;;;20.76;100.00;99433.56;5112223;28;20278;-78
2023/06/28 08:12:37;;;;;;;0.93;0.70;;;;;;;20.90;100.00;99429.03;5112226;28;20672;-77
2023/06/28 08:15:04;;;;;;;0.67;0.67;;;;;;;20.83;100.00;99425.84;5109251;28;20252;-78
2023/06/28 08:17:31;;;;;;;1.30;0.70;;;;;;;20.54;100.00;99432.16;5112278;28;20219;-78
2023/06/28 08:19:58;;;;;;;0.80;0.80;;;;;;;20.54;100.00;99428.63;5113837;28;20195;-78
2023/06/28 08:22:25;;;;;;;0.77;0.73;;;;;;;20.35;100.00;99420.41;5119131;28;20268;-78
2023/06/28 08:24:51;;;;;;;1.83;0.83;;;;;;;20.12;98.69;99416.53;5117235;28;20225;-78
2023/06/28 08:27:18;;;;;;;1.00;0.73;;;;;;;20.19;96.49;99410.75;5118796;28;20198;-77
2023/06/28 08:29:44;;;;;;;0.70;0.70;;;;;;;19.98;98.84;99421.00;5118870;28;20221;-78
2023/06/28 08:32:11;;;;;;;0.80;0.80;;;;;;;20.31;97.89;99408.47;5112932;28;20211;-78
2023/06/28 08:34:38;;;;;;;1.23;0.90;;;;;;;20.57;100.00;99415.28;5116433;28;20268;-78
2023/06/28 08:37:06;;;;;;;0.70;0.70;;;;;;;20.67;100.00;99406.97;5116479;27;20197;-78
2023/06/28 08:39:32;;;;;;;0.77;0.73;;;;;;;20.88;99.90;99407.53;5118768;28;20183;-78
2023/06/28 08:42:01;;;;;;;1.80;0.70;;;;;;;21.09;100.00;99416.22;5118600;28;20191;-78
2023/06/28 08:44:29;;;;;;;1.53;0.80;;;;;;;21.20;99.62;99412.28;5091867;28;20676;-78
2023/06/28 08:46:56;;;;;;;1.07;0.60;;;;;;;21.31;100.00;99408.31;5118604;28;20637;-78
2023/06/28 08:49:23;;;;;;;3.10;0.80;;;;;;;21.18;98.56;99411.78;5117996;28;20188;-77
2023/06/28 08:51:50;;;;;;;2.10;0.80;;;;;;;21.08;95.01;99414.63;5089539;28;20286;-78
2023/06/28 08:54:17;;;;;;;0.80;0.80;;;;;;;21.14;91.20;99407.22;5115700;28;20190;-78
2023/06/28 08:56:44;;;;;;;1.37;0.70;;;;;;;21.28;97.89;99405.34;5097366;28;20221;-78
2023/06/28 08:59:24;;;;;;;0.93;0.70;;;;;;;21.19;91.10;99402.50;5093810;27;20195;-78
2023/06/28 09:01:55;;;;;;;0.60;0.60;;;;;;;21.35;92.10;99411.25;5116970;28;20214;-79
2023/06/28 09:04:28;;;;;;;0.90;0.73;;;;;;;21.44;89.54;99401.31;5114738;28;20234;-78
2023/06/28 09:06:55;;;;;;;1.40;0.70;;;;;;;21.62;91.87;99402.38;5097385;28;20198;-78
2023/06/28 09:09:23;;;;;;;1.20;0.80;;;;;;;21.71;88.57;99406.88;5115707;28;20197;-78
2023/06/28 09:11:50;;;;;;;0.90;0.90;;;;;;;21.79;90.61;99398.00;5083303;28;20231;-78
2023/06/28 09:14:17;;;;;;;1.30;0.80;;;;;;;21.67;87.24;99399.59;5113554;28;20223;-78
2023/06/28 09:16:44;;;;;;;1.10;0.90;;;;;;;21.85;87.31;99393.28;5115476;28;20248;-78
2023/06/28 09:19:10;;;;;;;1.10;0.80;;;;;;;21.69;85.80;99408.28;5114930;28;20714;-78
2023/06/28 09:21:37;;;;;;;0.80;0.80;;;;;;;21.52;87.72;99400.63;5115173;28;20268;-77
2023/06/28 09:24:10;;;;;;;0.80;0.80;;;;;;;21.80;87.05;99398.81;5115229;28;20297;-77
2023/06/28 09:26:36;;;;;;;2.73;0.80;;;;;;;22.00;88.54;99409.41;5112523;28;20199;-78
2023/06/28 09:29:08;;;;;;;1.57;0.70;;;;;;;22.03;85.33;99406.06;5114937;28;20303;-78
2023/06/28 09:31:41;;;;;;;1.70;0.90;;;;;;;22.16;85.86;99394.38;5106919;28;20206;-78
2023/06/28 09:34:08;;;;;;;2.07;0.90;;;;;;;22.22;86.03;99387.72;5109813;28;20692;-78
2023/06/28 09:36:38;;;;;;;2.97;0.90;;;;;;;22.13;85.96;99384.06;5112899;28;20184;-79
2023/06/28 09:39:05;;;;;;;1.00;0.90;;;;;;;22.37;88.50;99386.63;5096811;28;20297;-79
2023/06/28 09:41:39;;;;;;;1.53;1.07;;;;;;;22.58;85.50;99390.59;5103615;28;20329;-78
2023/06/28 09:44:09;;;;;;;0.90;0.90;;;;;;;22.45;83.02;99382.38;5111690;28;20219;-78
2023/06/28 09:46:42;;;;;;;2.30;0.90;;;;;;;22.75;81.41;99377.13;5109320;28;20189;-79
2023/06/28 09:49:20;;;;;;;2.13;0.90;;;;;;;22.61;81.66;99389.16;5104462;28;20255;-81
2023/06/28 09:52:04;;;;;;;1.70;1.30;;;;;;;22.73;82.03;99386.72;5087202;28;20577;-78
2023/06/28 09:54:40;;;;;;;1.83;1.10;;;;;;;22.66;80.99;99380.84;5090926;28;20193;-79
2023/06/28 09:57:07;;;;;;;1.00;0.90;;;;;;;22.97;82.55;99381.03;5111411;28;20274;-78
2023/06/28 09:59:35;;;;;;;1.05;0.90;;;;;;;22.79;80.95;99367.22;5108375;28;20219;-78
2023/06/28 10:02:09;;;;;;;0.90;0.88;;;;;;;23.18;80.01;99363.09;5111844;28;20634;-78
2023/06/28 10:04:37;;;;;;;1.27;1.00;;;;;;;23.36;79.69;99369.50;5107391;28;20244;-79
2023/06/28 10:07:05;;;;;;;1.15;0.98;;;;;;;23.21;78.67;99363.25;5093407;28;20188;-78
2023/06/28 10:09:39;;;;;;;1.65;0.98;;;;;;;23.46;80.13;99361.88;5108390;28;20548;-78
2023/06/28 10:12:10;;;;;;;1.58;0.95;;;;;;;23.39;78.97;99347.81;5108600;28;20269;-78
2023/06/28 10:14:39;;;;;;;1.00;0.85;;;;;;;23.45;80.36;99351.25;5104805;28;20207;-79
2023/06/28 10:17:06;;;;;;;2.38;0.80;;;;;;;23.37;75.84;99354.72;5091008;28;20670;-78
2023/06/28 10:19:33;;;;;;;2.90;1.00;;;;;;;23.12;75.25;99345.19;5104393;28;20680;-79
2023/06/28 10:22:00;;;;;;;1.35;1.10;;;;;;;23.49;76.13;99346.78;5105503;28;20613;-79
2023/06/28 10:24:31;;;;;;;2.60;1.13;;;;;;;23.61;75.84;99338.81;5089885;28;20219;-78
2023/06/28 10:27:00;;;;;;;1.45;1.08;;;;;;;23.69;77.58;99352.56;5096710;28;20195;-79
2023/06/28 10:29:27;;;;;;;1.02;1.00;;;;;;;23.78;73.81;99340.84;5094911;28;20250;-78
2023/06/28 10:31:54;;;;;;;0.93;0.93;;;;;;;23.86;73.31;99342.81;5089884;28;20199;-78
2023/06/28 10:34:22;;;;;;;1.08;0.98;;;;;;;24.00;72.04;99349.00;5111467;28;20184;-79
2023/06/28 10:36:49;;;;;;;1.88;1.15;;;;;;;24.16;70.74;99339.31;5105090;28;20190;-79
2023/06/28 10:39:17;;;;;;;0.90;0.80;;;;;;;23.72;71.10;99342.09;5113753;28;20192;-79
2023/06/28 10:41:43;;;;;;;1.00;0.90;;;;;;;23.76;71.51;99341.16;5113472;28;20202;-79
2023/06/28 10:44:10;;;;;;;1.10;1.00;;;;;;;23.92;68.97;99325.16;5100296;28;20233;-80
2023/06/28 10:46:37;;;;;;;1.48;0.93;;;;;;;24.27;70.53;99329.69;5087135;28;20241;-79
2023/06/28 10:49:04;;;;;;;1.10;1.00;;;;;;;24.70;67.93;99323.50;5104677;28;20196;-78
2023/06/28 10:51:33;;;;;;;3.08;1.00;;;;;;;24.80;67.92;99318.53;5089422;28;20256;-78
2023/06/28 10:54:12;;;;;;;1.17;0.88;;;;;;;25.36;67.43;99316.78;5105732;28;20204;-80
2023/06/28 10:56:50;;;;;;;1.30;1.20;;;;;;;25.77;64.50;99308.81;5087254;28;20198;-79
2023/06/28 10:59:17;;;;;;;1.42;0.90;;;;;;;25.67;63.39;99300.13;5102536;28;20237;-80
2023/06/28 11:01:51;;;;;;;1.00;0.90;;;;;;;25.48;65.88;99307.88;5089080;28;20199;-79
2023/06/28 11:04:21;;;;;;;1.00;0.82;;;;;;;25.37;66.14;99307.44;5101069;28;20232;-78
2023/06/28 11:07:02;;;;;;;1.17;0.95;;;;;;;24.95;68.08;99312.63;5100551;28;20248;-79
2023/06/28 11:09:30;;;;;;;1.45;1.10;;;;;;;24.63;67.56;99304.81;5103691;28;20223;-79
2023/06/28 11:11:57;;;;;;;1.00;0.93;;;;;;;24.43;66.75;99297.19;5085651;28;20665;-78
2023/06/28 11:14:27;;;;;;;1.08;0.82;;;;;;;24.58;67.75;99294.00;5085332;28;20784;-80
2023/06/28 11:17:06;;;;;;;0.93;0.93;;;;;;;24.52;65.79;99309.78;5080629;28;20196;-78
2023/06/28 11:19:33;;;;;;;2.75;1.10;;;;;;;24.74;61.64;99306.09;5082845;28;20655;-79
2023/06/28 11:22:03;;;;;;;1.08;0.88;;;;;;;25.02;59.48;99312.13;5082099;28;20643;-78
2023/06/28 11:24:36;;;;;;;1.17;1.05;;;;;;;24.87;58.66;99301.66;5101459;28;20205;-79
2023/06/28 11:27:13;;;;;;;1.23;1.00;;;;;;;24.46;59.56;99293.81;5101658;28;20199;-78
2023/06/28 11:29:57;;;;;;;1.60;0.88;;;;;;;24.42;60.15;99295.59;5082334;28;20224;-79